Time;durP1;ratioP1;P1;durP2;ratioP2;P2;SDS_P1;SDS_P2;PMS_P1;PMS_P2;Temp;Humidity;BMP_temperature;BMP_pressure;BME280_temperature;BME280_humidity;BME280_pressure;Samples;Min_cycle;Max_cycle;Signal;HPM_P1;HPM_P2
2021/04/18 00:02:09;;;;;;;49.50;27.95;;;;;;;5.19;77.88;99346.27;114512;1193;64369;-84
2021/04/18 00:04:36;;;;;;;52.10;28.30;;;;;;;5.18;78.43;99348.05;114194;1196;64445;-85
2021/04/18 00:07:03;;;;;;;61.80;31.50;;;;;;;5.18;78.17;99347.19;114183;1196;64302;-86
2021/04/18 00:09:30;;;;;;;57.03;29.97;;;;;;;5.19;77.80;99343.61;114341;1196;64483;-89
2021/04/18 00:11:57;;;;;;;54.50;26.95;;;;;;;5.20;78.66;99345.33;114444;1196;64368;-84
2021/04/18 00:14:25;;;;;;;52.77;28.10;;;;;;;5.18;77.89;99342.75;114616;1196;64780;-89
2021/04/18 00:16:53;;;;;;;54.65;26.35;;;;;;;5.16;78.17;99339.33;114210;1196;64381;-84
2021/04/18 00:19:20;;;;;;;59.30;30.53;;;;;;;5.15;77.96;99338.47;114360;1193;64346;-89
2021/04/18 00:21:48;;;;;;;46.60;26.47;;;;;;;5.19;78.95;99343.61;114311;1193;64381;-84
2021/04/18 00:24:15;;;;;;;49.00;26.70;;;;;;;5.19;78.38;99335.67;114293;1196;64455;-85
2021/04/18 00:26:42;;;;;;;45.50;27.15;;;;;;;5.24;78.98;99333.68;114442;1196;64372;-84
2021/04/18 00:29:09;;;;;;;55.35;29.55;;;;;;;5.29;78.22;99339.63;114249;1196;64439;-88
2021/04/18 00:31:35;;;;;;;47.40;25.50;;;;;;;5.29;78.59;99344.92;114385;1195;64356;-84
2021/04/18 00:34:02;;;;;;;53.85;26.50;;;;;;;5.27;78.59;99342.32;114433;1195;64375;-85
2021/04/18 00:36:28;;;;;;;50.33;26.80;;;;;;;5.31;79.12;99337.76;114241;1193;64458;-87
2021/04/18 00:38:55;;;;;;;62.00;29.95;;;;;;;5.36;78.65;99338.41;114147;1193;64407;-85
2021/04/18 00:41:22;;;;;;;56.23;25.90;;;;;;;5.34;78.43;99340.25;114377;1196;64330;-85
2021/04/18 00:43:48;;;;;;;43.37;22.83;;;;;;;5.30;78.17;99339.55;114438;1193;64388;-88
2021/04/18 00:46:15;;;;;;;41.95;22.70;;;;;;;5.26;78.68;99335.31;114357;1193;64464;-84
2021/04/18 00:48:43;;;;;;;46.05;22.30;;;;;;;5.22;78.18;99333.75;114195;1193;64397;-84
2021/04/18 00:51:14;;;;;;;46.05;21.50;;;;;;;5.20;78.50;99329.44;114382;1193;64337;-84
2021/04/18 00:53:42;;;;;;;35.55;22.15;;;;;;;5.20;79.02;99324.14;114352;1193;64359;-84
2021/04/18 00:56:11;;;;;;;43.30;21.20;;;;;;;5.22;78.84;99327.60;114683;1193;64410;-82
2021/04/18 00:58:38;;;;;;;45.57;22.80;;;;;;;5.22;78.66;99317.87;114201;1196;64493;-86
2021/04/18 01:01:07;;;;;;;52.30;23.85;;;;;;;5.29;78.56;99321.09;114321;1193;64385;-86
2021/04/18 01:03:35;;;;;;;41.50;22.70;;;;;;;5.30;78.76;99322.80;114263;1193;64394;-87
2021/04/18 01:06:03;;;;;;;44.93;22.53;;;;;;;5.29;78.45;99314.00;114582;1195;64362;-85
2021/04/18 01:08:34;;;;;;;43.20;23.40;;;;;;;5.30;78.94;99317.51;114220;1195;64491;-88
2021/04/18 01:11:00;;;;;;;34.97;20.17;;;;;;;5.29;79.19;99313.14;114128;1195;64810;-89
2021/04/18 01:13:29;;;;;;;40.20;19.97;;;;;;;5.27;79.02;99321.14;114355;1195;64535;-87
2021/04/18 01:15:56;;;;;;;32.25;18.60;;;;;;;5.25;78.96;99317.71;114456;1196;64296;-84
2021/04/18 01:18:23;;;;;;;41.53;19.17;;;;;;;5.22;78.90;99317.87;114298;1195;64487;-85
2021/04/18 01:21:10;;;;;;;30.70;19.45;;;;;;;5.24;78.80;99320.44;114272;1196;64350;-88
2021/04/18 01:23:55;;;;;;;31.40;17.83;;;;;;;5.27;78.89;99317.63;114208;1196;64350;-87
2021/04/18 01:26:43;;;;;;;35.90;19.05;;;;;;;5.31;78.99;99313.92;114235;1196;64475;-86
2021/04/18 01:29:10;;;;;;;33.63;17.63;;;;;;;5.32;78.44;99318.28;114731;1196;64400;-85
2021/04/18 01:31:37;;;;;;;31.97;16.30;;;;;;;5.31;78.67;99317.42;114234;1196;64401;-84
2021/04/18 01:34:06;;;;;;;39.90;18.83;;;;;;;5.33;78.54;99314.70;114367;1196;64455;-87
2021/04/18 01:36:32;;;;;;;38.55;20.35;;;;;;;5.32;78.54;99311.20;114363;1195;64487;-84
2021/04/18 01:38:59;;;;;;;39.57;19.13;;;;;;;5.32;78.87;99310.34;114345;1196;64548;-87
2021/04/18 01:41:26;;;;;;;29.65;17.05;;;;;;;5.29;79.03;99310.50;114302;1193;64452;-85
2021/04/18 01:43:53;;;;;;;31.73;17.70;;;;;;;5.28;79.29;99314.05;114329;1193;64353;-87
2021/04/18 01:46:20;;;;;;;37.65;17.95;;;;;;;5.26;78.72;99302.68;114191;1193;64359;-85
2021/04/18 01:48:47;;;;;;;33.85;17.80;;;;;;;5.24;78.90;99300.11;114351;1193;64487;-85
2021/04/18 01:51:14;;;;;;;35.60;17.35;;;;;;;5.26;79.22;99302.68;114206;1193;64372;-87
2021/04/18 01:53:42;;;;;;;31.50;17.20;;;;;;;5.24;78.63;99294.81;114376;1196;64389;-90
2021/04/18 01:56:10;;;;;;;34.93;14.53;;;;;;;5.25;78.95;99293.02;114370;1193;64359;-87
2021/04/18 01:58:38;;;;;;;30.10;15.80;;;;;;;5.27;79.54;99294.66;114411;1193;64385;-88
2021/04/18 02:01:39;;;;;;;28.85;15.75;;;;;;;5.32;79.28;99297.10;114261;1193;64564;-85
2021/04/18 02:04:19;;;;;;;30.13;16.33;;;;;;;5.34;78.91;99300.52;114627;1196;64755;-86
2021/04/18 02:06:47;;;;;;;33.80;18.00;;;;;;;5.34;79.29;99297.88;114366;1196;64346;-84
2021/04/18 02:09:14;;;;;;;34.27;16.67;;;;;;;5.36;78.99;99302.19;114159;1196;64318;-90
2021/04/18 02:11:41;;;;;;;28.60;14.85;;;;;;;5.34;78.88;99306.71;114296;1196;64379;-87
2021/04/18 02:14:12;;;;;;;29.95;17.30;;;;;;;5.35;79.46;99300.48;114212;1196;64536;-89
2021/04/18 02:16:52;;;;;;;31.05;16.15;;;;;;;5.36;79.13;99288.95;114494;1196;64298;-91
2021/04/18 02:19:19;;;;;;;21.47;14.77;;;;;;;5.37;79.26;99289.80;114271;1195;64394;-87
2021/04/18 02:21:47;;;;;;;32.70;15.70;;;;;;;5.39;78.89;99293.23;114302;1195;65724;-86
2021/04/18 02:24:15;;;;;;;30.50;17.10;;;;;;;5.41;78.97;99294.03;114176;1196;64379;-90
2021/04/18 02:26:42;;;;;;;34.05;17.05;;;;;;;5.46;78.79;99291.15;114156;1196;64603;-89
2021/04/18 02:29:10;;;;;;;37.87;20.03;;;;;;;5.51;78.80;99287.35;114616;1194;64467;-86
2021/04/18 02:31:48;;;;;;;38.45;21.25;;;;;;;5.52;79.23;99283.77;114226;1196;64353;-83
2021/04/18 02:34:15;;;;;;;38.87;20.27;;;;;;;5.51;78.89;99287.35;114350;1195;64288;-85
2021/04/18 02:36:42;;;;;;;47.10;21.20;;;;;;;5.51;78.79;99278.55;114144;1196;64407;-87
2021/04/18 02:39:09;;;;;;;39.63;19.70;;;;;;;5.49;78.77;99275.98;114768;1196;64439;-87
2021/04/18 02:41:36;;;;;;;30.60;18.03;;;;;;;5.47;78.99;99275.20;114332;1193;64414;-84
2021/04/18 02:44:03;;;;;;;30.47;17.97;;;;;;;5.47;79.56;99267.27;114312;1193;64462;-87
2021/04/18 02:46:30;;;;;;;29.90;17.05;;;;;;;5.46;79.06;99265.52;114195;1193;64298;-84
2021/04/18 02:48:58;;;;;;;43.60;16.67;;;;;;;5.48;79.16;99255.73;114460;1193;64380;-84
2021/04/18 02:51:25;;;;;;;24.40;14.33;;;;;;;5.50;78.74;99255.65;114328;1196;64525;-86
2021/04/18 02:53:52;;;;;;;31.93;16.07;;;;;;;5.51;79.09;99254.70;114335;1195;64385;-89
2021/04/18 02:56:18;;;;;;;33.73;16.23;;;;;;;5.51;79.14;99249.41;114302;1196;64398;-88
2021/04/18 02:58:54;;;;;;;31.60;17.93;;;;;;;5.50;79.03;99251.20;114377;1193;64385;-85
2021/04/18 03:01:22;;;;;;;30.10;18.10;;;;;;;5.49;79.18;99253.94;114235;1193;64401;-86
2021/04/18 03:03:50;;;;;;;34.87;17.67;;;;;;;5.47;78.96;99261.97;114247;1193;64426;-86
2021/04/18 03:06:17;;;;;;;40.10;18.05;;;;;;;5.49;78.91;99262.73;114371;1193;64429;-87
2021/04/18 03:08:44;;;;;;;37.47;17.30;;;;;;;5.49;79.46;99262.73;114163;1193;64385;-87
2021/04/18 03:11:11;;;;;;;27.30;16.00;;;;;;;5.51;78.70;99257.36;114709;1193;64391;-87
2021/04/18 03:13:39;;;;;;;32.30;16.90;;;;;;;5.51;78.73;99265.30;114312;1193;64336;-87
2021/04/18 03:16:06;;;;;;;33.43;17.67;;;;;;;5.51;78.97;99254.70;114226;1195;64356;-85
2021/04/18 03:18:33;;;;;;;35.07;17.40;;;;;;;5.54;79.57;99255.44;114253;1195;64480;-85
2021/04/18 03:21:03;;;;;;;35.40;18.67;;;;;;;5.55;78.75;99254.50;114201;1195;64362;-86
2021/04/18 03:23:30;;;;;;;39.30;18.85;;;;;;;5.54;79.39;99250.14;114229;1196;64381;-85
2021/04/18 03:25:58;;;;;;;41.90;21.40;;;;;;;5.54;79.11;99243.98;114184;1196;65255;-86
2021/04/18 03:28:25;;;;;;;38.20;20.05;;;;;;;5.55;79.21;99248.34;114452;1196;64430;-90
2021/04/18 03:30:53;;;;;;;31.35;19.00;;;;;;;5.53;79.58;99248.39;114215;1196;64299;-84
2021/04/18 03:33:23;;;;;;;28.87;18.33;;;;;;;5.51;78.80;99247.62;114223;1196;64410;-87
2021/04/18 03:35:58;;;;;;;29.60;17.45;;;;;;;5.51;79.41;99246.77;114451;1196;64365;-86
2021/04/18 03:38:25;;;;;;;33.40;18.20;;;;;;;5.53;78.89;99247.53;114417;1196;64375;-90
2021/04/18 03:40:52;;;;;;;30.10;16.40;;;;;;;5.55;79.34;99249.20;114273;1196;64398;-85
2021/04/18 03:43:19;;;;;;;30.63;17.07;;;;;;;5.57;78.92;99255.27;114565;1193;64362;-86
2021/04/18 03:45:46;;;;;;;32.93;18.33;;;;;;;5.58;79.07;99245.53;114160;1193;64368;-86
2021/04/18 03:48:13;;;;;;;29.27;19.43;;;;;;;5.61;78.94;99246.25;114234;1193;64535;-86
2021/04/18 03:50:40;;;;;;;32.10;19.25;;;;;;;5.62;79.11;99244.46;114358;1193;64404;-83
2021/04/18 03:53:21;;;;;;;38.70;20.47;;;;;;;5.65;79.12;99247.80;114222;1196;64413;-86
2021/04/18 03:55:56;;;;;;;40.15;22.40;;;;;;;5.66;79.83;99244.24;114399;1195;64387;-86
2021/04/18 03:58:27;;;;;;;35.45;19.75;;;;;;;5.67;79.54;99245.95;114136;1196;64382;-87
2021/04/18 04:01:02;;;;;;;33.30;18.27;;;;;;;5.68;79.43;99244.16;114443;1196;64365;-87
2021/04/18 04:03:33;;;;;;;35.33;17.83;;;;;;;5.72;79.62;99248.36;114447;1194;64339;-85
2021/04/18 04:06:00;;;;;;;33.43;18.20;;;;;;;5.73;79.26;99247.45;114179;1193;64371;-89
2021/04/18 04:08:30;;;;;;;37.57;20.23;;;;;;;5.71;78.90;99249.30;114322;1193;64247;-88
2021/04/18 04:10:57;;;;;;;40.65;19.10;;;;;;;5.69;79.18;99245.88;114340;1196;64886;-84
2021/04/18 04:13:24;;;;;;;41.70;21.00;;;;;;;5.68;79.29;99245.02;114237;1196;64449;-89
2021/04/18 04:15:57;;;;;;;37.77;20.83;;;;;;;5.67;79.00;99242.45;114390;1193;64433;-85
2021/04/18 04:18:25;;;;;;;34.70;21.65;;;;;;;5.67;79.04;99240.66;114156;1196;64478;-84
2021/04/18 04:21:03;;;;;;;37.20;21.75;;;;;;;5.71;79.01;99238.70;114369;1196;64474;-85
2021/04/18 04:23:52;;;;;;;39.75;21.15;;;;;;;5.67;78.66;99235.36;114183;1196;64305;-87
2021/04/18 04:26:19;;;;;;;38.50;22.90;;;;;;;5.63;78.79;99233.78;114635;1196;64413;-86
2021/04/18 04:28:46;;;;;;;34.40;19.60;;;;;;;5.63;78.80;99224.98;114239;1196;64465;-85
2021/04/18 04:31:12;;;;;;;33.40;18.45;;;;;;;5.63;78.83;99233.78;114140;1196;64458;-87
2021/04/18 04:33:39;;;;;;;31.63;18.80;;;;;;;5.63;78.66;99228.48;114380;1196;64330;-86
2021/04/18 04:36:07;;;;;;;41.63;19.90;;;;;;;5.68;78.87;99230.91;114374;1196;64439;-87
2021/04/18 04:38:34;;;;;;;32.50;17.30;;;;;;;5.70;78.75;99229.89;114239;1196;64298;-87
2021/04/18 04:41:01;;;;;;;32.87;19.83;;;;;;;5.72;78.85;99228.95;114159;1196;64356;-87
2021/04/18 04:43:28;;;;;;;41.20;19.70;;;;;;;5.73;79.06;99233.34;114137;1195;64404;-85
2021/04/18 04:45:55;;;;;;;33.73;18.83;;;;;;;5.74;78.83;99227.11;114450;1196;64343;-87
2021/04/18 04:48:22;;;;;;;33.40;18.05;;;;;;;5.76;78.80;99233.17;114332;1196;64455;-89
2021/04/18 04:50:48;;;;;;;38.13;17.80;;;;;;;5.81;79.19;99228.52;114328;1193;64388;-85
2021/04/18 04:53:15;;;;;;;37.15;19.50;;;;;;;5.87;79.42;99225.55;114190;1193;64960;-86
2021/04/18 04:55:45;;;;;;;33.60;20.27;;;;;;;5.91;79.05;99237.73;114305;1195;64487;-87
2021/04/18 04:58:11;;;;;;;33.45;20.25;;;;;;;5.93;78.90;99241.19;114187;1195;64333;-85
2021/04/18 05:00:38;;;;;;;38.50;21.25;;;;;;;5.92;79.05;99239.47;114470;1196;64302;-85
2021/04/18 05:03:05;;;;;;;31.00;19.00;;;;;;;5.88;78.57;99243.17;114313;1196;64318;-87
2021/04/18 05:05:32;;;;;;;35.83;17.33;;;;;;;5.84;78.70;99234.50;114146;1196;64413;-89
2021/04/18 05:07:59;;;;;;;33.53;17.80;;;;;;;5.81;78.82;99239.11;114178;1196;64455;-87
2021/04/18 05:10:26;;;;;;;36.50;18.85;;;;;;;5.78;79.05;99241.89;114365;1193;64838;-86
2021/04/18 05:12:52;;;;;;;40.00;20.77;;;;;;;5.76;78.31;99236.68;114228;1193;64422;-84
2021/04/18 05:15:22;;;;;;;36.85;20.85;;;;;;;5.75;78.44;99250.02;114371;1196;64449;-85
2021/04/18 05:17:50;;;;;;;36.63;21.30;;;;;;;5.75;79.29;99247.36;114178;1194;64320;-87
2021/04/18 05:20:18;;;;;;;41.53;22.07;;;;;;;5.81;79.35;99247.06;114253;1196;64401;-85
2021/04/18 05:22:45;;;;;;;43.57;22.80;;;;;;;5.86;79.21;99250.35;114351;1195;64378;-87
2021/04/18 05:25:14;;;;;;;37.83;22.50;;;;;;;5.89;78.74;99243.09;114292;1196;64308;-89
2021/04/18 05:27:41;;;;;;;41.45;23.10;;;;;;;5.89;78.69;99239.58;114697;1196;64397;-87
2021/04/18 05:30:09;;;;;;;48.53;22.20;;;;;;;5.88;79.61;99236.08;114247;1196;64446;-86
2021/04/18 05:32:38;;;;;;;37.05;19.85;;;;;;;5.91;78.67;99237.73;114303;1196;64407;-86
2021/04/18 05:35:06;;;;;;;33.90;18.37;;;;;;;5.93;79.06;99241.19;114306;1193;64352;-85
2021/04/18 05:37:33;;;;;;;36.40;19.30;;;;;;;5.99;78.63;99245.33;114484;1193;64345;-87
2021/04/18 05:40:00;;;;;;;35.00;18.95;;;;;;;6.05;78.99;99235.27;114219;1193;64346;-84
2021/04/18 05:42:26;;;;;;;39.53;19.43;;;;;;;6.13;78.92;99241.03;114245;1196;64362;-84
2021/04/18 05:44:53;;;;;;;40.80;20.35;;;;;;;6.17;78.92;99247.02;114463;1196;64449;-84
2021/04/18 05:47:20;;;;;;;39.53;21.80;;;;;;;6.20;79.01;99246.88;114278;1196;64372;-88
2021/04/18 05:49:47;;;;;;;36.30;22.00;;;;;;;6.25;79.18;99251.95;114363;1196;64362;-86
2021/04/18 05:52:14;;;;;;;37.70;22.25;;;;;;;6.31;79.09;99251.64;114184;1196;64355;-86
2021/04/18 05:54:41;;;;;;;43.13;22.53;;;;;;;6.37;78.61;99248.67;114192;1196;64356;-88
2021/04/18 05:57:07;;;;;;;35.95;21.15;;;;;;;6.40;79.34;99252.00;114156;1195;64452;-87
2021/04/18 05:59:34;;;;;;;35.35;20.20;;;;;;;6.46;78.58;99242.88;114296;1196;64417;-86
2021/04/18 06:02:01;;;;;;;37.17;20.03;;;;;;;6.52;79.17;99252.31;114382;1193;64375;-85
2021/04/18 06:04:27;;;;;;;33.95;19.80;;;;;;;6.64;79.22;99249.87;114326;1193;64308;-85
2021/04/18 06:06:54;;;;;;;35.03;19.53;;;;;;;6.76;79.12;99246.56;114193;1193;64385;-84
2021/04/18 06:09:21;;;;;;;35.70;20.10;;;;;;;6.84;78.79;99253.26;114333;1196;64532;-85
2021/04/18 06:11:48;;;;;;;38.70;22.65;;;;;;;6.96;78.16;99252.59;114204;1196;64448;-84
2021/04/18 06:14:14;;;;;;;39.03;21.87;;;;;;;7.07;78.39;99252.88;114436;1196;64330;-88
2021/04/18 06:16:41;;;;;;;41.73;22.73;;;;;;;7.16;78.67;99241.73;114481;1196;64365;-88
2021/04/18 06:19:08;;;;;;;37.10;22.83;;;;;;;7.20;77.83;99243.30;114136;1195;64452;-84
2021/04/18 06:21:35;;;;;;;34.70;20.25;;;;;;;7.20;78.03;99250.41;114185;1195;64497;-87
2021/04/18 06:24:03;;;;;;;36.03;20.17;;;;;;;7.17;77.92;99248.76;114249;1196;64359;-84
2021/04/18 06:26:29;;;;;;;35.27;18.17;;;;;;;7.13;78.20;99246.38;114190;1195;64397;-84
2021/04/18 06:28:56;;;;;;;38.00;19.90;;;;;;;7.08;78.25;99251.94;114295;1196;64297;-86
2021/04/18 06:31:22;;;;;;;35.70;20.35;;;;;;;7.10;77.85;99247.38;114637;1196;64391;-86
2021/04/18 06:33:49;;;;;;;38.30;20.87;;;;;;;7.09;78.49;99250.98;114449;1196;64456;-86
2021/04/18 06:36:16;;;;;;;38.90;20.97;;;;;;;7.12;78.00;99250.80;114550;1196;64381;-86
2021/04/18 06:38:42;;;;;;;46.27;23.17;;;;;;;7.16;77.91;99246.19;114576;1196;64452;-85
2021/04/18 06:41:15;;;;;;;42.57;24.40;;;;;;;7.26;78.20;99253.58;114596;1196;64388;-85
2021/04/18 06:43:43;;;;;;;48.60;25.50;;;;;;;7.41;78.29;99245.69;114367;1196;64358;-84
2021/04/18 06:46:16;;;;;;;50.40;29.35;;;;;;;7.49;78.10;99251.42;114350;1196;64445;-84
2021/04/18 06:48:45;;;;;;;53.30;30.30;;;;;;;7.55;78.06;99259.05;114428;1196;64305;-84
2021/04/18 06:51:12;;;;;;;55.27;29.73;;;;;;;7.53;78.08;99255.63;114583;1196;64455;-84
2021/04/18 06:53:39;;;;;;;51.60;29.35;;;;;;;7.58;78.59;99262.41;114353;1193;64362;-84
2021/04/18 06:56:06;;;;;;;39.90;21.10;;;;;;;7.65;78.64;99254.94;114347;1193;64362;-84
2021/04/18 06:58:35;;;;;;;37.85;23.60;;;;;;;7.72;78.14;99261.62;114907;1196;64387;-85
2021/04/18 07:01:04;;;;;;;33.00;20.40;;;;;;;7.77;78.38;99256.91;114286;1196;64365;-89
2021/04/18 07:03:31;;;;;;;32.25;19.10;;;;;;;7.81;78.20;99255.76;114587;1195;64707;-85
2021/04/18 07:05:58;;;;;;;32.13;20.67;;;;;;;7.89;78.04;99252.68;114344;1196;64295;-84
2021/04/18 07:08:29;;;;;;;55.55;36.15;;;;;;;7.93;77.95;99251.54;114300;1196;64432;-84
2021/04/18 07:11:20;;;;;;;35.53;19.70;;;;;;;7.85;77.97;99257.30;114322;1193;64538;-86
2021/04/18 07:13:48;;;;;;;30.33;18.13;;;;;;;7.80;78.18;99251.39;114385;1193;64522;-83
2021/04/18 07:16:44;;;;;;;31.57;18.50;;;;;;;7.75;77.42;99249.94;114300;1193;64553;-86
2021/04/18 07:19:25;;;;;;;27.43;16.13;;;;;;;7.76;78.07;99256.96;114306;1193;64372;-87
2021/04/18 07:21:56;;;;;;;30.00;19.47;;;;;;;7.77;77.92;99253.39;114280;1193;64455;-89
2021/04/18 07:24:25;;;;;;;35.23;20.77;;;;;;;7.81;77.85;99258.42;114369;1193;64333;-87
2021/04/18 07:27:01;;;;;;;56.40;30.50;;;;;;;7.83;78.25;99261.02;114253;1193;64359;-88
2021/04/18 07:29:30;;;;;;;49.30;30.43;;;;;;;7.83;77.75;99261.86;114320;1193;64391;-85
2021/04/18 07:31:59;;;;;;;48.73;30.67;;;;;;;7.81;77.72;99271.71;114468;1193;64299;-85
2021/04/18 07:34:35;;;;;;;39.60;25.30;;;;;;;7.74;77.93;99262.38;115141;1196;63210;-84
2021/04/18 07:37:10;;;;;;;34.80;20.05;;;;;;;7.70;78.12;99263.52;114554;1196;64359;-84
2021/04/18 07:39:54;;;;;;;38.70;23.20;;;;;;;7.68;77.65;99272.50;114617;1193;64362;-85
2021/04/18 07:42:31;;;;;;;33.50;20.70;;;;;;;7.66;77.58;99272.59;114307;1193;64454;-87
2021/04/18 07:45:00;;;;;;;35.43;20.03;;;;;;;7.67;77.53;99268.98;114784;1193;64404;-84
2021/04/18 07:47:28;;;;;;;31.83;18.93;;;;;;;7.69;77.74;99276.88;114582;1193;64362;-85
2021/04/18 07:49:56;;;;;;;33.83;17.80;;;;;;;7.68;77.71;99267.19;114277;1194;64443;-88
2021/04/18 07:52:25;;;;;;;31.45;18.60;;;;;;;7.61;77.59;99282.63;114550;1195;64433;-84
2021/04/18 07:54:53;;;;;;;28.35;16.30;;;;;;;7.65;78.25;99278.01;114766;1196;64401;-83
2021/04/18 07:57:21;;;;;;;35.20;22.10;;;;;;;7.66;77.93;99279.72;114204;1195;64375;-85
2021/04/18 07:59:48;;;;;;;36.20;21.75;;;;;;;7.68;78.05;99278.67;114215;1196;64404;-84
2021/04/18 08:02:20;;;;;;;37.90;20.00;;;;;;;7.68;77.94;99278.67;114472;1193;64330;-84
2021/04/18 08:04:51;;;;;;;33.50;21.63;;;;;;;7.64;77.67;99273.64;114348;1193;64340;-84
2021/04/18 08:07:17;;;;;;;43.80;24.33;;;;;;;7.54;77.37;99284.77;114319;1193;64292;-83
2021/04/18 08:09:44;;;;;;;40.63;22.60;;;;;;;7.45;77.95;99274.67;114155;1193;64308;-85
2021/04/18 08:12:16;;;;;;;123.00;74.35;;;;;;;7.43;77.58;99280.99;114189;1193;64334;-85
2021/04/18 08:14:46;;;;;;;53.10;32.00;;;;;;;7.35;77.63;99278.77;114386;1196;64439;-88
2021/04/18 08:17:17;;;;;;;43.80;30.45;;;;;;;7.36;77.80;99275.16;114892;1195;64803;-84
2021/04/18 08:19:58;;;;;;;42.40;25.85;;;;;;;7.40;77.66;99279.38;114888;1195;64295;-85
2021/04/18 08:22:45;;;;;;;33.90;23.65;;;;;;;7.45;77.57;99273.81;114651;1196;64350;-82
2021/04/18 08:25:12;;;;;;;39.57;23.63;;;;;;;7.46;77.44;99270.21;114527;1196;64282;-85
2021/04/18 08:28:12;;;;;;;34.93;23.13;;;;;;;7.51;77.59;99268.16;114743;1196;64366;-85
2021/04/18 08:31:05;;;;;;;37.67;21.50;;;;;;;7.76;77.60;99260.51;114429;1196;64353;-85
2021/04/18 08:33:42;;;;;;;47.93;27.43;;;;;;;7.99;77.73;99275.12;114665;1193;64362;-84
2021/04/18 08:36:30;;;;;;;50.20;28.60;;;;;;;8.18;77.24;99266.06;114555;1196;64317;-83
2021/04/18 08:39:00;;;;;;;63.57;35.50;;;;;;;8.36;77.35;99262.35;114743;1194;65641;-84
2021/04/18 08:41:41;;;;;;;110.00;48.40;;;;;;;8.47;77.49;99265.23;114704;1193;64628;-88
2021/04/18 08:44:17;;;;;;;102.20;47.37;;;;;;;8.53;77.08;99266.67;114753;1193;64318;-82
2021/04/18 08:46:45;;;;;;;170.45;72.95;;;;;;;8.58;77.01;99262.75;114907;1193;64426;-84
2021/04/18 08:49:24;;;;;;;134.35;62.15;;;;;;;8.74;77.09;99262.70;114775;1193;64473;-85
2021/04/18 08:51:53;;;;;;;100.35;49.95;;;;;;;8.88;77.25;99267.16;114479;1193;64288;-86
2021/04/18 08:54:25;;;;;;;91.63;44.23;;;;;;;8.96;76.89;99262.21;114358;1196;64414;-83
2021/04/18 08:56:55;;;;;;;48.65;27.20;;;;;;;9.02;76.90;99271.63;114490;1196;64334;-81
2021/04/18 08:59:23;;;;;;;69.45;35.10;;;;;;;8.99;76.77;99267.37;114483;1196;64359;-83
2021/04/18 09:02:09;;;;;;;52.55;28.20;;;;;;;9.03;76.70;99260.88;114476;1196;64427;-84
2021/04/18 09:04:37;;;;;;;205.27;92.93;;;;;;;9.10;76.57;99269.38;114445;1196;64413;-87
2021/04/18 09:07:36;;;;;;;83.37;44.63;;;;;;;9.16;77.06;99269.84;115344;1193;64374;-81
2021/04/18 09:11:07;;;;;;;121.25;57.10;;;;;;;9.25;77.09;99268.39;115006;1196;64522;-85
2021/04/18 09:14:01;;;;;;;64.30;36.67;;;;;;;9.34;77.17;99262.47;114632;1193;64250;-85
2021/04/18 09:16:40;;;;;;;85.67;45.40;;;;;;;9.37;77.03;99272.09;114754;1193;64298;-86
2021/04/18 09:19:23;;;;;;;58.40;36.40;;;;;;;9.33;77.14;99275.89;114939;1195;64311;-84
2021/04/18 09:22:31;;;;;;;256.13;98.23;;;;;;;9.31;77.02;99265.34;114709;1195;64513;-84
2021/04/18 09:25:52;;;;;;;57.40;29.80;;;;;;;9.15;76.73;99273.43;115056;1196;64384;-84
2021/04/18 09:28:33;;;;;;;113.90;50.70;;;;;;;8.97;76.90;99266.62;114304;1200;64340;-85
2021/04/18 09:31:10;;;;;;;36.77;25.63;;;;;;;8.95;77.16;99265.83;114203;1200;64394;-84
2021/04/18 09:33:40;;;;;;;48.50;27.60;;;;;;;8.91;77.39;99267.84;113907;1200;64509;-84
2021/04/18 09:36:19;;;;;;;90.05;44.00;;;;;;;8.98;77.45;99270.98;114105;1200;64423;-85
2021/04/18 09:38:52;;;;;;;46.60;26.40;;;;;;;9.03;77.37;99268.02;113991;1200;64356;-85
2021/04/18 09:41:22;;;;;;;69.85;34.30;;;;;;;9.07;77.48;99265.07;113941;1200;64385;-85
2021/04/18 09:43:59;;;;;;;85.90;49.40;;;;;;;9.19;77.26;99279.44;114124;1200;64302;-85
2021/04/18 09:46:42;;;;;;;66.80;37.00;;;;;;;9.23;76.94;99262.31;113939;1203;64413;-85
2021/04/18 09:49:14;;;;;;;77.40;39.00;;;;;;;9.33;76.78;99276.75;114034;1200;64461;-83
2021/04/18 09:51:58;;;;;;;439.80;197.50;;;;;;;9.38;76.48;99269.33;114045;1202;64567;-84
2021/04/18 09:54:33;;;;;;;76.70;41.60;;;;;;;9.30;76.51;99274.30;113957;1203;64346;-84
2021/04/18 09:57:11;;;;;;;;;;;;;;;9.36;76.56;99271.24;114027;1200;64531;-83
2021/04/18 09:59:47;;;;;;;76.30;38.55;;;;;;;9.41;76.17;99274.44;114519;1200;64620;-84
2021/04/18 10:02:25;;;;;;;91.55;52.00;;;;;;;9.64;76.60;99274.79;114929;1197;64503;-83
2021/04/18 10:05:11;;;;;;;348.27;173.87;;;;;;;10.00;76.24;99271.53;114780;1193;64557;-84
2021/04/18 10:07:44;;;;;;;100.77;51.53;;;;;;;10.41;75.71;99276.78;114514;1193;64369;-83
2021/04/18 10:10:36;;;;;;;101.13;41.60;;;;;;;10.79;75.49;99260.80;115126;1196;64416;-83
2021/04/18 10:13:55;;;;;;;74.60;41.27;;;;;;;11.32;75.36;99257.95;114441;1196;64421;-84
2021/04/18 10:16:37;;;;;;;50.33;29.20;;;;;;;11.68;74.58;99254.44;114190;1193;64407;-88
2021/04/18 10:19:14;;;;;;;195.43;125.83;;;;;;;12.15;74.43;99258.09;114414;1194;64371;-87
2021/04/18 10:22:04;;;;;;;53.70;32.10;;;;;;;12.36;74.37;99261.84;114675;1196;64301;-86
2021/04/18 10:24:50;;;;;;;57.03;30.43;;;;;;;12.16;73.12;99257.16;114379;1196;64435;-83
2021/04/18 10:27:25;;;;;;;67.90;35.40;;;;;;;12.13;74.31;99268.08;114205;1194;64333;-86
2021/04/18 10:29:54;;;;;;;86.43;40.40;;;;;;;12.31;74.38;99257.80;114184;1195;64455;-85
2021/04/18 10:32:25;;;;;;;41.47;28.33;;;;;;;12.57;74.42;99261.17;114795;1193;64371;-83
2021/04/18 10:34:54;;;;;;;48.73;28.87;;;;;;;12.59;74.27;99254.70;114428;1193;63243;-83
2021/04/18 10:37:22;;;;;;;41.23;26.70;;;;;;;12.79;74.63;99252.30;114623;1193;64435;-85
2021/04/18 10:39:51;;;;;;;49.70;26.93;;;;;;;13.05;74.06;99259.18;114425;1193;64324;-82
2021/04/18 10:42:20;;;;;;;401.40;219.30;;;;;;;12.96;73.08;99255.38;114538;1196;64525;-82
2021/04/18 10:44:49;;;;;;;40.03;27.37;;;;;;;12.85;73.72;99258.07;114561;1193;64416;-85
2021/04/18 10:47:19;;;;;;;38.53;24.87;;;;;;;13.06;74.89;99251.98;114358;1195;64487;-83
2021/04/18 10:49:49;;;;;;;36.10;23.15;;;;;;;13.31;73.93;99253.60;114473;1196;64368;-86
2021/04/18 10:52:18;;;;;;;33.40;23.07;;;;;;;13.30;73.53;99249.22;114275;1196;64377;-82
2021/04/18 10:54:48;;;;;;;30.17;23.40;;;;;;;13.34;73.45;99245.30;114352;1196;64535;-86
2021/04/18 10:57:16;;;;;;;33.47;22.40;;;;;;;13.34;72.06;99240.78;114478;1196;64342;-83
2021/04/18 10:59:47;;;;;;;38.90;24.70;;;;;;;13.18;73.17;99249.19;114285;1196;64432;-83
2021/04/18 11:02:17;;;;;;;33.05;22.35;;;;;;;13.10;73.01;99250.75;114620;1193;64324;-83
2021/04/18 11:04:46;;;;;;;87.27;50.53;;;;;;;13.05;73.62;99251.14;114365;1193;64404;-84
2021/04/18 11:07:16;;;;;;;29.97;21.10;;;;;;;13.04;73.02;99248.55;114757;1193;64484;-82
2021/04/18 11:09:44;;;;;;;91.20;52.50;;;;;;;12.90;73.53;99250.50;114566;1193;64346;-83
2021/04/18 11:12:20;;;;;;;34.53;23.80;;;;;;;13.02;74.54;99251.36;114628;1193;64385;-83
2021/04/18 11:14:49;;;;;;;30.87;21.37;;;;;;;13.19;74.68;99250.89;114452;1193;64343;-82
2021/04/18 11:17:18;;;;;;;30.47;22.83;;;;;;;13.14;74.34;99253.07;114261;1196;64448;-83
2021/04/18 11:19:47;;;;;;;33.57;23.37;;;;;;;13.04;75.07;99246.75;114369;1195;64531;-82
2021/04/18 11:22:17;;;;;;;31.90;21.55;;;;;;;13.06;75.22;99255.52;114370;1196;64413;-85
2021/04/18 11:24:46;;;;;;;39.40;26.70;;;;;;;13.04;74.92;99253.91;114611;1193;64362;-83
2021/04/18 11:27:16;;;;;;;35.93;22.20;;;;;;;12.93;74.99;99247.59;114463;1193;64378;-83
2021/04/18 11:29:46;;;;;;;30.13;21.97;;;;;;;12.93;75.16;99249.42;114639;1196;64443;-83
2021/04/18 11:32:21;;;;;;;30.77;22.43;;;;;;;12.95;74.91;99258.19;114578;1196;64375;-82
2021/04/18 11:34:55;;;;;;;29.20;21.60;;;;;;;13.06;75.29;99251.98;114450;1196;64539;-84
2021/04/18 11:37:25;;;;;;;28.50;21.10;;;;;;;13.21;74.93;99254.32;115124;1196;64404;-83